sensor_id;sensor_type;location;lat;lon;timestamp;temperature;humidity
78649;DHT22;67962;47.310;9.642;2023-05-28T00:01:03;17.90;60.40
78649;DHT22;67962;47.310;9.642;2023-05-28T00:03:29;17.90;60.50
78649;DHT22;67962;47.310;9.642;2023-05-28T00:05:58;17.80;60.40
78649;DHT22;67962;47.310;9.642;2023-05-28T00:08:24;17.80;60.70
78649;DHT22;67962;47.310;9.642;2023-05-28T00:10:50;17.70;60.70
78649;DHT22;67962;47.310;9.642;2023-05-28T00:13:17;17.60;60.40
78649;DHT22;67962;47.310;9.642;2023-05-28T00:15:43;17.50;60.70
78649;DHT22;67962;47.310;9.642;2023-05-28T00:18:10;17.40;61.50
78649;DHT22;67962;47.310;9.642;2023-05-28T00:20:40;17.30;61.50
78649;DHT22;67962;47.310;9.642;2023-05-28T00:23:05;17.30;61.90
78649;DHT22;67962;47.310;9.642;2023-05-28T00:25:31;17.30;61.70
78649;DHT22;67962;47.310;9.642;2023-05-28T00:27:57;17.50;61.40
78649;DHT22;67962;47.310;9.642;2023-05-28T00:30:23;17.50;61.20
78649;DHT22;67962;47.310;9.642;2023-05-28T00:32:50;17.50;61.20
78649;DHT22;67962;47.310;9.642;2023-05-28T00:35:16;17.50;61.60
78649;DHT22;67962;47.310;9.642;2023-05-28T00:37:41;17.40;61.90
78649;DHT22;67962;47.310;9.642;2023-05-28T00:40:08;17.30;61.90
78649;DHT22;67962;47.310;9.642;2023-05-28T00:42:33;17.40;62.30
78649;DHT22;67962;47.310;9.642;2023-05-28T00:44:59;17.30;62.50
78649;DHT22;67962;47.310;9.642;2023-05-28T00:47:26;17.30;62.60
78649;DHT22;67962;47.310;9.642;2023-05-28T00:49:52;17.40;62.30
78649;DHT22;67962;47.310;9.642;2023-05-28T00:52:20;17.40;61.70
78649;DHT22;67962;47.310;9.642;2023-05-28T00:54:47;17.30;61.70
78649;DHT22;67962;47.310;9.642;2023-05-28T00:57:14;17.30;62.00
78649;DHT22;67962;47.310;9.642;2023-05-28T00:59:40;17.40;61.80
78649;DHT22;67962;47.310;9.642;2023-05-28T01:02:08;17.50;61.60
78649;DHT22;67962;47.310;9.642;2023-05-28T01:04:34;17.60;61.60
78649;DHT22;67962;47.310;9.642;2023-05-28T01:07:00;17.70;61.50
78649;DHT22;67962;47.310;9.642;2023-05-28T01:09:26;17.60;61.60
78649;DHT22;67962;47.310;9.642;2023-05-28T01:11:53;17.50;62.00
78649;DHT22;67962;47.310;9.642;2023-05-28T01:14:20;17.50;62.30
78649;DHT22;67962;47.310;9.642;2023-05-28T01:16:46;17.50;62.60
78649;DHT22;67962;47.310;9.642;2023-05-28T01:19:16;17.40;62.80
78649;DHT22;67962;47.310;9.642;2023-05-28T01:21:45;17.40;62.90
78649;DHT22;67962;47.310;9.642;2023-05-28T01:24:12;17.40;63.00
78649;DHT22;67962;47.310;9.642;2023-05-28T01:26:41;17.30;62.90
78649;DHT22;67962;47.310;9.642;2023-05-28T01:29:18;17.20;63.20
78649;DHT22;67962;47.310;9.642;2023-05-28T01:31:44;17.20;63.30
78649;DHT22;67962;47.310;9.642;2023-05-28T01:34:11;17.20;63.30
78649;DHT22;67962;47.310;9.642;2023-05-28T01:37:07;17.10;63.70
78649;DHT22;67962;47.310;9.642;2023-05-28T01:39:36;17.10;63.70
78649;DHT22;67962;47.310;9.642;2023-05-28T01:42:04;17.00;63.70
78649;DHT22;67962;47.310;9.642;2023-05-28T01:44:31;17.00;63.80
78649;DHT22;67962;47.310;9.642;2023-05-28T01:46:57;16.90;64.20
78649;DHT22;67962;47.310;9.642;2023-05-28T01:49:23;16.80;64.40
78649;DHT22;67962;47.310;9.642;2023-05-28T01:51:50;16.90;64.50
78649;DHT22;67962;47.310;9.642;2023-05-28T01:54:16;16.90;64.40
78649;DHT22;67962;47.310;9.642;2023-05-28T01:56:42;16.80;64.40
78649;DHT22;67962;47.310;9.642;2023-05-28T01:59:08;16.80;64.40
78649;DHT22;67962;47.310;9.642;2023-05-28T02:01:34;16.80;64.50
78649;DHT22;67962;47.310;9.642;2023-05-28T02:04:01;16.70;64.40
78649;DHT22;67962;47.310;9.642;2023-05-28T02:06:30;16.70;64.60
78649;DHT22;67962;47.310;9.642;2023-05-28T02:08:56;16.60;64.70
78649;DHT22;67962;47.310;9.642;2023-05-28T02:11:22;16.70;64.60
78649;DHT22;67962;47.310;9.642;2023-05-28T02:13:48;16.60;64.60
78649;DHT22;67962;47.310;9.642;2023-05-28T02:16:14;16.50;64.90
78649;DHT22;67962;47.310;9.642;2023-05-28T02:18:44;16.50;64.90
78649;DHT22;67962;47.310;9.642;2023-05-28T02:21:10;16.50;64.90
78649;DHT22;67962;47.310;9.642;2023-05-28T02:23:43;16.60;64.60
78649;DHT22;67962;47.310;9.642;2023-05-28T02:26:09;16.70;64.20
78649;DHT22;67962;47.310;9.642;2023-05-28T02:28:35;16.80;64.10
78649;DHT22;67962;47.310;9.642;2023-05-28T02:31:00;16.80;64.10
78649;DHT22;67962;47.310;9.642;2023-05-28T02:33:26;16.70;64.00
78649;DHT22;67962;47.310;9.642;2023-05-28T02:35:52;16.50;65.30
78649;DHT22;67962;47.310;9.642;2023-05-28T02:38:18;16.40;64.90
78649;DHT22;67962;47.310;9.642;2023-05-28T02:40:44;16.40;65.00
78649;DHT22;67962;47.310;9.642;2023-05-28T02:43:09;16.30;65.10
78649;DHT22;67962;47.310;9.642;2023-05-28T02:45:35;16.30;65.10
78649;DHT22;67962;47.310;9.642;2023-05-28T02:48:01;16.30;65.10
78649;DHT22;67962;47.310;9.642;2023-05-28T02:50:27;16.20;65.30
78649;DHT22;67962;47.310;9.642;2023-05-28T02:52:52;16.20;65.60
78649;DHT22;67962;47.310;9.642;2023-05-28T02:55:18;16.20;65.60
78649;DHT22;67962;47.310;9.642;2023-05-28T02:57:44;16.20;65.40
78649;DHT22;67962;47.310;9.642;2023-05-28T03:00:10;16.10;65.40
78649;DHT22;67962;47.310;9.642;2023-05-28T03:02:36;16.10;65.60
78649;DHT22;67962;47.310;9.642;2023-05-28T03:05:02;16.20;65.40
78649;DHT22;67962;47.310;9.642;2023-05-28T03:07:31;16.30;65.50
78649;DHT22;67962;47.310;9.642;2023-05-28T03:09:57;16.20;65.50
78649;DHT22;67962;47.310;9.642;2023-05-28T03:12:23;16.10;65.50
78649;DHT22;67962;47.310;9.642;2023-05-28T03:14:49;16.10;65.70
78649;DHT22;67962;47.310;9.642;2023-05-28T03:17:15;16.10;65.70
78649;DHT22;67962;47.310;9.642;2023-05-28T03:19:41;16.10;65.50
78649;DHT22;67962;47.310;9.642;2023-05-28T03:22:06;16.10;65.30
78649;DHT22;67962;47.310;9.642;2023-05-28T03:24:32;16.20;65.40
78649;DHT22;67962;47.310;9.642;2023-05-28T03:26:59;16.10;65.50
78649;DHT22;67962;47.310;9.642;2023-05-28T03:29:25;16.00;65.80
78649;DHT22;67962;47.310;9.642;2023-05-28T03:31:51;15.90;65.80
78649;DHT22;67962;47.310;9.642;2023-05-28T03:34:17;16.00;65.90
78649;DHT22;67962;47.310;9.642;2023-05-28T03:36:43;16.00;66.20
78649;DHT22;67962;47.310;9.642;2023-05-28T03:39:10;15.90;66.30
78649;DHT22;67962;47.310;9.642;2023-05-28T03:41:36;15.80;66.50
78649;DHT22;67962;47.310;9.642;2023-05-28T03:44:02;15.80;66.40
78649;DHT22;67962;47.310;9.642;2023-05-28T03:46:28;15.80;66.50
78649;DHT22;67962;47.310;9.642;2023-05-28T03:48:54;15.70;66.90
78649;DHT22;67962;47.310;9.642;2023-05-28T03:51:20;15.70;67.10
78649;DHT22;67962;47.310;9.642;2023-05-28T03:53:47;15.70;67.10
78649;DHT22;67962;47.310;9.642;2023-05-28T03:56:12;15.70;67.10
78649;DHT22;67962;47.310;9.642;2023-05-28T03:58:38;15.70;67.10
78649;DHT22;67962;47.310;9.642;2023-05-28T04:01:04;15.70;67.20
78649;DHT22;67962;47.310;9.642;2023-05-28T04:03:30;15.70;67.20
78649;DHT22;67962;47.310;9.642;2023-05-28T04:05:56;15.70;67.20
78649;DHT22;67962;47.310;9.642;2023-05-28T04:08:21;15.70;67.30
78649;DHT22;67962;47.310;9.642;2023-05-28T04:10:47;15.80;67.30
78649;DHT22;67962;47.310;9.642;2023-05-28T04:13:13;15.70;67.00
78649;DHT22;67962;47.310;9.642;2023-05-28T04:15:38;15.70;67.20
78649;DHT22;67962;47.310;9.642;2023-05-28T04:18:04;15.80;67.20
78649;DHT22;67962;47.310;9.642;2023-05-28T04:20:30;15.70;67.20
78649;DHT22;67962;47.310;9.642;2023-05-28T04:22:56;15.80;67.40
78649;DHT22;67962;47.310;9.642;2023-05-28T04:25:22;15.80;67.50
78649;DHT22;67962;47.310;9.642;2023-05-28T04:27:47;15.80;67.50
78649;DHT22;67962;47.310;9.642;2023-05-28T04:30:13;15.80;68.40
78649;DHT22;67962;47.310;9.642;2023-05-28T04:32:39;15.80;67.60
78649;DHT22;67962;47.310;9.642;2023-05-28T04:35:07;15.90;67.80
78649;DHT22;67962;47.310;9.642;2023-05-28T04:37:37;15.90;67.80
78649;DHT22;67962;47.310;9.642;2023-05-28T04:40:06;15.90;67.60
78649;DHT22;67962;47.310;9.642;2023-05-28T04:42:32;16.00;67.70
78649;DHT22;67962;47.310;9.642;2023-05-28T04:44:58;16.00;67.70
78649;DHT22;67962;47.310;9.642;2023-05-28T04:47:25;16.00;67.80
78649;DHT22;67962;47.310;9.642;2023-05-28T04:49:51;16.10;67.60
78649;DHT22;67962;47.310;9.642;2023-05-28T04:52:16;16.20;67.70
78649;DHT22;67962;47.310;9.642;2023-05-28T04:54:45;16.20;67.80
78649;DHT22;67962;47.310;9.642;2023-05-28T04:57:11;16.30;67.90
78649;DHT22;67962;47.310;9.642;2023-05-28T04:59:36;16.60;67.90
78649;DHT22;67962;47.310;9.642;2023-05-28T05:02:02;17.00;67.30
78649;DHT22;67962;47.310;9.642;2023-05-28T05:04:29;17.40;66.30
78649;DHT22;67962;47.310;9.642;2023-05-28T05:06:55;17.80;65.60
78649;DHT22;67962;47.310;9.642;2023-05-28T05:09:21;18.20;64.70
78649;DHT22;67962;47.310;9.642;2023-05-28T05:11:48;18.50;63.60
78649;DHT22;67962;47.310;9.642;2023-05-28T05:14:14;18.80;63.00
78649;DHT22;67962;47.310;9.642;2023-05-28T05:16:40;18.90;62.80
78649;DHT22;67962;47.310;9.642;2023-05-28T05:19:06;19.20;61.70
78649;DHT22;67962;47.310;9.642;2023-05-28T05:21:31;19.40;61.30
78649;DHT22;67962;47.310;9.642;2023-05-28T05:23:57;19.50;61.40
78649;DHT22;67962;47.310;9.642;2023-05-28T05:26:23;19.60;61.00
78649;DHT22;67962;47.310;9.642;2023-05-28T05:28:49;19.70;60.80
78649;DHT22;67962;47.310;9.642;2023-05-28T05:31:15;19.90;60.50
78649;DHT22;67962;47.310;9.642;2023-05-28T05:33:41;20.20;59.60
78649;DHT22;67962;47.310;9.642;2023-05-28T05:36:10;20.30;59.10
78649;DHT22;67962;47.310;9.642;2023-05-28T05:38:38;20.40;58.90
78649;DHT22;67962;47.310;9.642;2023-05-28T05:41:04;20.50;58.10
78649;DHT22;67962;47.310;9.642;2023-05-28T05:43:30;20.70;57.80
78649;DHT22;67962;47.310;9.642;2023-05-28T05:45:55;20.70;57.40
78649;DHT22;67962;47.310;9.642;2023-05-28T05:48:21;20.80;56.80
78649;DHT22;67962;47.310;9.642;2023-05-28T05:50:48;21.00;56.20
78649;DHT22;67962;47.310;9.642;2023-05-28T05:53:14;21.00;54.40
78649;DHT22;67962;47.310;9.642;2023-05-28T05:55:40;21.10;53.40
78649;DHT22;67962;47.310;9.642;2023-05-28T05:58:05;21.10;54.00
78649;DHT22;67962;47.310;9.642;2023-05-28T06:00:31;21.30;54.10
78649;DHT22;67962;47.310;9.642;2023-05-28T06:02:57;21.50;53.70
78649;DHT22;67962;47.310;9.642;2023-05-28T06:05:22;21.70;53.30
78649;DHT22;67962;47.310;9.642;2023-05-28T06:07:48;22.00;53.10
78649;DHT22;67962;47.310;9.642;2023-05-28T06:10:14;22.20;52.00
78649;DHT22;67962;47.310;9.642;2023-05-28T06:12:40;22.20;52.10
78649;DHT22;67962;47.310;9.642;2023-05-28T06:15:06;22.30;51.20
78649;DHT22;67962;47.310;9.642;2023-05-28T06:17:32;22.30;52.20
78649;DHT22;67962;47.310;9.642;2023-05-28T06:19:59;22.30;52.40
78649;DHT22;67962;47.310;9.642;2023-05-28T06:22:26;22.40;51.20
78649;DHT22;67962;47.310;9.642;2023-05-28T06:24:52;22.50;48.30
78649;DHT22;67962;47.310;9.642;2023-05-28T06:27:19;22.40;46.40
78649;DHT22;67962;47.310;9.642;2023-05-28T06:29:45;22.40;47.50
78649;DHT22;67962;47.310;9.642;2023-05-28T06:32:11;22.30;47.80
78649;DHT22;67962;47.310;9.642;2023-05-28T06:34:38;22.20;47.20
78649;DHT22;67962;47.310;9.642;2023-05-28T06:37:04;22.20;46.90
78649;DHT22;67962;47.310;9.642;2023-05-28T06:39:30;22.20;47.20
78649;DHT22;67962;47.310;9.642;2023-05-28T06:41:56;22.10;47.80
78649;DHT22;67962;47.310;9.642;2023-05-28T06:44:21;22.00;47.50
78649;DHT22;67962;47.310;9.642;2023-05-28T06:46:47;21.90;47.20
78649;DHT22;67962;47.310;9.642;2023-05-28T06:49:13;21.90;48.50
78649;DHT22;67962;47.310;9.642;2023-05-28T06:51:39;21.80;47.10
78649;DHT22;67962;47.310;9.642;2023-05-28T06:54:05;21.90;47.80
78649;DHT22;67962;47.310;9.642;2023-05-28T06:56:30;22.10;47.60
78649;DHT22;67962;47.310;9.642;2023-05-28T06:58:56;22.20;46.60
78649;DHT22;67962;47.310;9.642;2023-05-28T07:01:22;22.30;46.10
78649;DHT22;67962;47.310;9.642;2023-05-28T07:03:48;22.60;46.00
78649;DHT22;67962;47.310;9.642;2023-05-28T07:06:14;22.70;46.40
78649;DHT22;67962;47.310;9.642;2023-05-28T07:08:40;22.60;44.40
78649;DHT22;67962;47.310;9.642;2023-05-28T07:11:12;22.50;44.50
78649;DHT22;67962;47.310;9.642;2023-05-28T07:13:39;22.60;46.20
78649;DHT22;67962;47.310;9.642;2023-05-28T07:16:06;22.80;45.10
78649;DHT22;67962;47.310;9.642;2023-05-28T07:18:32;22.70;44.60
78649;DHT22;67962;47.310;9.642;2023-05-28T07:20:58;22.80;44.50
78649;DHT22;67962;47.310;9.642;2023-05-28T07:23:23;22.90;45.00
78649;DHT22;67962;47.310;9.642;2023-05-28T07:25:49;23.10;45.00
78649;DHT22;67962;47.310;9.642;2023-05-28T07:28:15;23.00;44.90
78649;DHT22;67962;47.310;9.642;2023-05-28T07:30:42;23.20;45.20
78649;DHT22;67962;47.310;9.642;2023-05-28T07:33:08;23.20;44.70
78649;DHT22;67962;47.310;9.642;2023-05-28T07:35:34;23.30;45.00
78649;DHT22;67962;47.310;9.642;2023-05-28T07:38:01;23.60;44.80
78649;DHT22;67962;47.310;9.642;2023-05-28T07:40:27;23.70;42.90
78649;DHT22;67962;47.310;9.642;2023-05-28T07:42:53;23.70;43.40
78649;DHT22;67962;47.310;9.642;2023-05-28T07:45:19;23.80;42.00
78649;DHT22;67962;47.310;9.642;2023-05-28T07:47:46;23.70;42.60
78649;DHT22;67962;47.310;9.642;2023-05-28T07:50:11;23.90;42.20
78649;DHT22;67962;47.310;9.642;2023-05-28T07:52:37;24.20;43.10
78649;DHT22;67962;47.310;9.642;2023-05-28T07:55:06;24.70;43.00
78649;DHT22;67962;47.310;9.642;2023-05-28T07:57:32;24.90;41.80
78649;DHT22;67962;47.310;9.642;2023-05-28T07:59:59;25.00;40.80
78649;DHT22;67962;47.310;9.642;2023-05-28T08:02:26;25.10;40.90
78649;DHT22;67962;47.310;9.642;2023-05-28T08:04:52;25.30;41.40
78649;DHT22;67962;47.310;9.642;2023-05-28T08:07:19;25.30;40.50
78649;DHT22;67962;47.310;9.642;2023-05-28T08:09:45;25.10;40.80
78649;DHT22;67962;47.310;9.642;2023-05-28T08:12:10;25.10;40.90
78649;DHT22;67962;47.310;9.642;2023-05-28T08:14:36;25.30;41.00
78649;DHT22;67962;47.310;9.642;2023-05-28T08:17:02;25.50;40.20
78649;DHT22;67962;47.310;9.642;2023-05-28T08:19:27;25.90;40.40
78649;DHT22;67962;47.310;9.642;2023-05-28T08:21:53;26.30;40.70
78649;DHT22;67962;47.310;9.642;2023-05-28T08:24:19;26.40;37.90
78649;DHT22;67962;47.310;9.642;2023-05-28T08:26:46;26.30;39.30
78649;DHT22;67962;47.310;9.642;2023-05-28T08:29:11;26.20;40.30
78649;DHT22;67962;47.310;9.642;2023-05-28T08:31:37;26.40;39.20
78649;DHT22;67962;47.310;9.642;2023-05-28T08:34:03;26.40;39.90
78649;DHT22;67962;47.310;9.642;2023-05-28T08:36:30;26.40;38.90
78649;DHT22;67962;47.310;9.642;2023-05-28T08:38:57;26.40;38.90
78649;DHT22;67962;47.310;9.642;2023-05-28T08:41:23;26.60;38.40
78649;DHT22;67962;47.310;9.642;2023-05-28T08:43:51;26.50;37.80
78649;DHT22;67962;47.310;9.642;2023-05-28T08:46:18;26.70;38.20
78649;DHT22;67962;47.310;9.642;2023-05-28T08:48:44;26.80;38.20
78649;DHT22;67962;47.310;9.642;2023-05-28T08:51:11;26.50;36.60
78649;DHT22;67962;47.310;9.642;2023-05-28T08:53:43;26.30;38.50
78649;DHT22;67962;47.310;9.642;2023-05-28T08:56:10;26.50;39.10
78649;DHT22;67962;47.310;9.642;2023-05-28T08:58:36;26.70;38.40
78649;DHT22;67962;47.310;9.642;2023-05-28T09:01:05;26.60;37.60
78649;DHT22;67962;47.310;9.642;2023-05-28T09:03:34;26.50;38.40
78649;DHT22;67962;47.310;9.642;2023-05-28T09:06:03;26.70;38.80
78649;DHT22;67962;47.310;9.642;2023-05-28T09:08:29;26.90;38.60
78649;DHT22;67962;47.310;9.642;2023-05-28T09:11:09;27.00;37.80
78649;DHT22;67962;47.310;9.642;2023-05-28T09:13:35;27.10;37.80
78649;DHT22;67962;47.310;9.642;2023-05-28T09:16:01;27.20;36.10
78649;DHT22;67962;47.310;9.642;2023-05-28T09:18:26;27.00;37.50
78649;DHT22;67962;47.310;9.642;2023-05-28T09:20:52;26.70;36.40
78649;DHT22;67962;47.310;9.642;2023-05-28T09:23:25;26.60;36.90
78649;DHT22;67962;47.310;9.642;2023-05-28T09:25:55;26.50;38.60
78649;DHT22;67962;47.310;9.642;2023-05-28T09:28:26;26.70;36.80
78649;DHT22;67962;47.310;9.642;2023-05-28T09:30:56;26.60;37.00
78649;DHT22;67962;47.310;9.642;2023-05-28T09:33:27;26.60;37.40
78649;DHT22;67962;47.310;9.642;2023-05-28T09:36:00;26.80;38.50
78649;DHT22;67962;47.310;9.642;2023-05-28T09:38:26;26.70;36.90
78649;DHT22;67962;47.310;9.642;2023-05-28T09:40:53;26.40;38.80
78649;DHT22;67962;47.310;9.642;2023-05-28T09:43:29;26.60;39.10
78649;DHT22;67962;47.310;9.642;2023-05-28T09:46:07;26.80;38.30
78649;DHT22;67962;47.310;9.642;2023-05-28T09:48:34;26.90;38.10
78649;DHT22;67962;47.310;9.642;2023-05-28T09:51:09;26.70;35.50
78649;DHT22;67962;47.310;9.642;2023-05-28T09:53:37;26.50;37.20
78649;DHT22;67962;47.310;9.642;2023-05-28T09:56:07;26.70;37.50
78649;DHT22;67962;47.310;9.642;2023-05-28T09:58:34;27.10;38.10
78649;DHT22;67962;47.310;9.642;2023-05-28T10:01:07;27.30;35.60
78649;DHT22;67962;47.310;9.642;2023-05-28T10:03:38;27.20;36.80
78649;DHT22;67962;47.310;9.642;2023-05-28T10:06:10;27.10;36.20
78649;DHT22;67962;47.310;9.642;2023-05-28T10:08:40;26.90;36.10
78649;DHT22;67962;47.310;9.642;2023-05-28T10:11:14;26.80;37.30
78649;DHT22;67962;47.310;9.642;2023-05-28T10:13:40;26.90;37.20
78649;DHT22;67962;47.310;9.642;2023-05-28T10:16:07;27.00;37.70
78649;DHT22;67962;47.310;9.642;2023-05-28T10:18:34;27.20;37.10
78649;DHT22;67962;47.310;9.642;2023-05-28T10:21:00;27.20;36.70
78649;DHT22;67962;47.310;9.642;2023-05-28T10:23:27;27.10;36.50
78649;DHT22;67962;47.310;9.642;2023-05-28T10:25:54;26.90;37.20
78649;DHT22;67962;47.310;9.642;2023-05-28T10:28:21;26.70;35.60
78649;DHT22;67962;47.310;9.642;2023-05-28T10:33:31;26.70;37.00
78649;DHT22;67962;47.310;9.642;2023-05-28T10:35:59;27.00;37.40
78649;DHT22;67962;47.310;9.642;2023-05-28T10:38:26;27.30;37.20
78649;DHT22;67962;47.310;9.642;2023-05-28T10:41:00;27.30;36.80
78649;DHT22;67962;47.310;9.642;2023-05-28T10:46:03;26.80;35.80
78649;DHT22;67962;47.310;9.642;2023-05-28T10:48:32;26.80;36.60
78649;DHT22;67962;47.310;9.642;2023-05-28T10:50:58;26.70;36.80
78649;DHT22;67962;47.310;9.642;2023-05-28T10:53:24;26.80;37.50
78649;DHT22;67962;47.310;9.642;2023-05-28T10:55:53;26.90;37.60
78649;DHT22;67962;47.310;9.642;2023-05-28T10:58:33;26.90;37.90
78649;DHT22;67962;47.310;9.642;2023-05-28T11:01:04;26.90;37.00
78649;DHT22;67962;47.310;9.642;2023-05-28T11:03:40;27.10;38.00
78649;DHT22;67962;47.310;9.642;2023-05-28T11:06:07;27.20;37.80
78649;DHT22;67962;47.310;9.642;2023-05-28T11:08:44;27.20;36.90
78649;DHT22;67962;47.310;9.642;2023-05-28T11:11:14;27.50;38.00
78649;DHT22;67962;47.310;9.642;2023-05-28T11:13:47;27.50;36.70
78649;DHT22;67962;47.310;9.642;2023-05-28T11:16:17;27.80;37.40
78649;DHT22;67962;47.310;9.642;2023-05-28T11:19:00;28.30;36.60
78649;DHT22;67962;47.310;9.642;2023-05-28T11:21:26;28.40;36.80
78649;DHT22;67962;47.310;9.642;2023-05-28T11:24:18;28.60;35.90
78649;DHT22;67962;47.310;9.642;2023-05-28T11:26:44;28.60;33.60
78649;DHT22;67962;47.310;9.642;2023-05-28T11:29:12;28.20;35.10
78649;DHT22;67962;47.310;9.642;2023-05-28T11:31:41;28.10;35.90
78649;DHT22;67962;47.310;9.642;2023-05-28T11:34:08;28.10;36.20
78649;DHT22;67962;47.310;9.642;2023-05-28T11:36:43;28.00;35.10
78649;DHT22;67962;47.310;9.642;2023-05-28T11:39:10;27.90;36.00
78649;DHT22;67962;47.310;9.642;2023-05-28T11:41:36;27.80;36.00
78649;DHT22;67962;47.310;9.642;2023-05-28T11:44:01;27.80;36.50
78649;DHT22;67962;47.310;9.642;2023-05-28T11:46:27;27.70;35.90
78649;DHT22;67962;47.310;9.642;2023-05-28T11:48:53;27.70;37.40
78649;DHT22;67962;47.310;9.642;2023-05-28T11:51:19;28.00;37.70
78649;DHT22;67962;47.310;9.642;2023-05-28T11:53:45;28.10;34.40
78649;DHT22;67962;47.310;9.642;2023-05-28T11:56:12;28.00;35.10
78649;DHT22;67962;47.310;9.642;2023-05-28T11:58:43;27.90;35.30
78649;DHT22;67962;47.310;9.642;2023-05-28T12:01:14;27.80;34.00
78649;DHT22;67962;47.310;9.642;2023-05-28T12:03:43;27.40;34.30
78649;DHT22;67962;47.310;9.642;2023-05-28T12:06:08;27.00;36.40
78649;DHT22;67962;47.310;9.642;2023-05-28T12:08:38;27.00;36.10
78649;DHT22;67962;47.310;9.642;2023-05-28T12:11:04;26.80;36.40
78649;DHT22;67962;47.310;9.642;2023-05-28T12:13:34;26.90;36.30
78649;DHT22;67962;47.310;9.642;2023-05-28T12:16:10;26.60;36.40
78649;DHT22;67962;47.310;9.642;2023-05-28T12:18:43;26.40;36.80
78649;DHT22;67962;47.310;9.642;2023-05-28T12:21:13;26.30;37.20
78649;DHT22;67962;47.310;9.642;2023-05-28T12:23:38;26.50;37.00
78649;DHT22;67962;47.310;9.642;2023-05-28T12:26:09;26.50;36.30
78649;DHT22;67962;47.310;9.642;2023-05-28T12:28:35;26.40;36.40
78649;DHT22;67962;47.310;9.642;2023-05-28T12:31:06;26.20;37.10
78649;DHT22;67962;47.310;9.642;2023-05-28T12:33:31;26.20;38.70
78649;DHT22;67962;47.310;9.642;2023-05-28T12:35:57;26.20;36.80
78649;DHT22;67962;47.310;9.642;2023-05-28T12:38:25;26.40;36.80
78649;DHT22;67962;47.310;9.642;2023-05-28T12:40:52;26.20;37.40
78649;DHT22;67962;47.310;9.642;2023-05-28T12:43:18;26.30;37.30
78649;DHT22;67962;47.310;9.642;2023-05-28T12:45:43;26.30;36.20
78649;DHT22;67962;47.310;9.642;2023-05-28T12:48:09;26.20;35.70
78649;DHT22;67962;47.310;9.642;2023-05-28T12:50:35;26.40;35.90
78649;DHT22;67962;47.310;9.642;2023-05-28T12:53:01;26.50;35.80
78649;DHT22;67962;47.310;9.642;2023-05-28T12:55:30;26.40;34.20
78649;DHT22;67962;47.310;9.642;2023-05-28T12:57:56;26.20;35.80
78649;DHT22;67962;47.310;9.642;2023-05-28T13:00:22;26.20;35.90
78649;DHT22;67962;47.310;9.642;2023-05-28T13:02:50;26.40;36.60
78649;DHT22;67962;47.310;9.642;2023-05-28T13:05:16;26.50;36.40
78649;DHT22;67962;47.310;9.642;2023-05-28T13:07:42;26.50;35.20
78649;DHT22;67962;47.310;9.642;2023-05-28T13:10:10;26.70;35.60
78649;DHT22;67962;47.310;9.642;2023-05-28T13:12:36;26.80;35.70
78649;DHT22;67962;47.310;9.642;2023-05-28T13:15:06;27.10;36.10
78649;DHT22;67962;47.310;9.642;2023-05-28T13:17:32;27.30;35.10
78649;DHT22;67962;47.310;9.642;2023-05-28T13:19:57;27.40;34.30
78649;DHT22;67962;47.310;9.642;2023-05-28T13:22:24;27.40;34.60
78649;DHT22;67962;47.310;9.642;2023-05-28T13:24:49;27.20;36.00
78649;DHT22;67962;47.310;9.642;2023-05-28T13:27:15;27.10;34.90
78649;DHT22;67962;47.310;9.642;2023-05-28T13:29:41;27.10;35.50
78649;DHT22;67962;47.310;9.642;2023-05-28T13:32:07;27.10;35.50
78649;DHT22;67962;47.310;9.642;2023-05-28T13:34:33;27.00;34.20
78649;DHT22;67962;47.310;9.642;2023-05-28T13:37:00;26.90;35.10
78649;DHT22;67962;47.310;9.642;2023-05-28T13:39:25;26.90;34.30
78649;DHT22;67962;47.310;9.642;2023-05-28T13:41:51;26.80;34.70
78649;DHT22;67962;47.310;9.642;2023-05-28T13:44:17;26.70;34.50
78649;DHT22;67962;47.310;9.642;2023-05-28T13:46:44;26.60;35.10
78649;DHT22;67962;47.310;9.642;2023-05-28T13:49:09;26.60;34.30
78649;DHT22;67962;47.310;9.642;2023-05-28T13:51:35;26.70;34.60
78649;DHT22;67962;47.310;9.642;2023-05-28T13:54:05;26.70;34.90
78649;DHT22;67962;47.310;9.642;2023-05-28T13:56:30;26.70;34.80
78649;DHT22;67962;47.310;9.642;2023-05-28T13:58:56;26.70;35.70
78649;DHT22;67962;47.310;9.642;2023-05-28T14:01:21;26.60;35.60
78649;DHT22;67962;47.310;9.642;2023-05-28T14:03:47;26.50;34.90
78649;DHT22;67962;47.310;9.642;2023-05-28T14:06:13;26.40;34.90
78649;DHT22;67962;47.310;9.642;2023-05-28T14:08:39;26.30;34.70
78649;DHT22;67962;47.310;9.642;2023-05-28T14:11:04;26.20;35.40
78649;DHT22;67962;47.310;9.642;2023-05-28T14:13:30;26.20;36.40
78649;DHT22;67962;47.310;9.642;2023-05-28T14:16:00;26.30;35.10
78649;DHT22;67962;47.310;9.642;2023-05-28T14:18:26;26.20;36.60
78649;DHT22;67962;47.310;9.642;2023-05-28T14:20:52;26.20;34.90
78649;DHT22;67962;47.310;9.642;2023-05-28T14:23:18;26.20;35.40
78649;DHT22;67962;47.310;9.642;2023-05-28T14:25:43;26.30;34.80
78649;DHT22;67962;47.310;9.642;2023-05-28T14:28:09;26.20;35.40
78649;DHT22;67962;47.310;9.642;2023-05-28T14:30:35;26.30;36.10
78649;DHT22;67962;47.310;9.642;2023-05-28T14:33:00;26.40;36.10
78649;DHT22;67962;47.310;9.642;2023-05-28T14:35:26;26.50;36.30
78649;DHT22;67962;47.310;9.642;2023-05-28T14:37:52;26.60;35.50
78649;DHT22;67962;47.310;9.642;2023-05-28T14:40:18;26.70;36.20
78649;DHT22;67962;47.310;9.642;2023-05-28T14:42:45;26.60;37.20
78649;DHT22;67962;47.310;9.642;2023-05-28T14:45:11;26.60;36.70
78649;DHT22;67962;47.310;9.642;2023-05-28T14:47:37;26.70;34.80
78649;DHT22;67962;47.310;9.642;2023-05-28T14:50:03;26.60;34.60
78649;DHT22;67962;47.310;9.642;2023-05-28T14:52:30;26.50;36.20
78649;DHT22;67962;47.310;9.642;2023-05-28T14:54:56;26.50;37.10
78649;DHT22;67962;47.310;9.642;2023-05-28T14:57:23;26.40;35.00
78649;DHT22;67962;47.310;9.642;2023-05-28T14:59:50;26.50;36.20
78649;DHT22;67962;47.310;9.642;2023-05-28T15:02:16;26.60;36.20
78649;DHT22;67962;47.310;9.642;2023-05-28T15:04:43;26.70;35.80
78649;DHT22;67962;47.310;9.642;2023-05-28T15:07:10;26.70;36.10
78649;DHT22;67962;47.310;9.642;2023-05-28T15:09:36;26.70;35.20
78649;DHT22;67962;47.310;9.642;2023-05-28T15:12:02;26.60;35.60
78649;DHT22;67962;47.310;9.642;2023-05-28T15:14:28;26.60;37.00
78649;DHT22;67962;47.310;9.642;2023-05-28T15:16:56;26.70;34.80
78649;DHT22;67962;47.310;9.642;2023-05-28T15:19:23;26.80;35.30
78649;DHT22;67962;47.310;9.642;2023-05-28T15:21:49;26.80;34.40
78649;DHT22;67962;47.310;9.642;2023-05-28T15:24:15;26.80;33.80
78649;DHT22;67962;47.310;9.642;2023-05-28T15:26:41;26.80;35.30
78649;DHT22;67962;47.310;9.642;2023-05-28T15:29:07;26.80;34.30
78649;DHT22;67962;47.310;9.642;2023-05-28T15:31:33;26.90;35.90
78649;DHT22;67962;47.310;9.642;2023-05-28T15:33:59;26.90;36.00